sensor_id;sensor_type;location;lat;lon;timestamp;temperature;humidity
21682;DHT22;11002;48.256;10.084;2023-04-05T00:02:01;0.30;52.90
21682;DHT22;11002;48.256;10.084;2023-04-05T00:04:28;0.10;52.50
21682;DHT22;11002;48.256;10.084;2023-04-05T00:07:00;0.10;50.20
21682;DHT22;11002;48.256;10.084;2023-04-05T00:09:27;0.20;49.90
21682;DHT22;11002;48.256;10.084;2023-04-05T00:11:54;-0.10;50.00
21682;DHT22;11002;48.256;10.084;2023-04-05T00:14:24;-0.10;50.50
21682;DHT22;11002;48.256;10.084;2023-04-05T00:16:51;-0.20;51.10
21682;DHT22;11002;48.256;10.084;2023-04-05T00:19:18;-0.20;51.60
21682;DHT22;11002;48.256;10.084;2023-04-05T00:21:48;-0.10;53.10
21682;DHT22;11002;48.256;10.084;2023-04-05T00:24:15;0.00;53.50
21682;DHT22;11002;48.256;10.084;2023-04-05T00:26:42;0.00;53.50
21682;DHT22;11002;48.256;10.084;2023-04-05T00:29:10;0.00;53.60
21682;DHT22;11002;48.256;10.084;2023-04-05T00:31:38;0.30;53.50
21682;DHT22;11002;48.256;10.084;2023-04-05T00:34:06;0.00;52.80
21682;DHT22;11002;48.256;10.084;2023-04-05T00:36:34;0.30;52.20
21682;DHT22;11002;48.256;10.084;2023-04-05T00:39:02;0.20;52.90
21682;DHT22;11002;48.256;10.084;2023-04-05T00:41:30;0.20;52.90
21682;DHT22;11002;48.256;10.084;2023-04-05T00:43:57;0.10;52.90
21682;DHT22;11002;48.256;10.084;2023-04-05T00:46:26;0.20;52.90
21682;DHT22;11002;48.256;10.084;2023-04-05T00:48:55;0.20;52.50
21682;DHT22;11002;48.256;10.084;2023-04-05T00:51:23;0.00;50.80
21682;DHT22;11002;48.256;10.084;2023-04-05T00:53:50;0.00;52.00
21682;DHT22;11002;48.256;10.084;2023-04-05T00:56:19;0.00;52.40
21682;DHT22;11002;48.256;10.084;2023-04-05T00:58:47;0.00;53.10
21682;DHT22;11002;48.256;10.084;2023-04-05T01:01:18;0.10;53.50
21682;DHT22;11002;48.256;10.084;2023-04-05T01:03:51;0.30;52.90
21682;DHT22;11002;48.256;10.084;2023-04-05T01:06:45;0.10;52.10
21682;DHT22;11002;48.256;10.084;2023-04-05T01:09:21;-0.10;51.10
21682;DHT22;11002;48.256;10.084;2023-04-05T01:11:51;-0.30;51.30
21682;DHT22;11002;48.256;10.084;2023-04-05T01:14:20;-0.20;53.00
21682;DHT22;11002;48.256;10.084;2023-04-05T01:16:48;-0.30;53.50
21682;DHT22;11002;48.256;10.084;2023-04-05T01:19:16;-0.10;54.20
21682;DHT22;11002;48.256;10.084;2023-04-05T01:22:01;0.00;54.50
21682;DHT22;11002;48.256;10.084;2023-04-05T01:24:53;-0.10;54.20
21682;DHT22;11002;48.256;10.084;2023-04-05T01:27:52;0.00;53.70
21682;DHT22;11002;48.256;10.084;2023-04-05T01:30:25;0.00;53.80
21682;DHT22;11002;48.256;10.084;2023-04-05T01:33:05;0.20;53.80
21682;DHT22;11002;48.256;10.084;2023-04-05T01:35:42;0.00;53.60
21682;DHT22;11002;48.256;10.084;2023-04-05T01:38:17;-0.10;53.50
21682;DHT22;11002;48.256;10.084;2023-04-05T01:40:46;0.10;53.80
21682;DHT22;11002;48.256;10.084;2023-04-05T01:43:15;-0.10;52.50
21682;DHT22;11002;48.256;10.084;2023-04-05T01:45:45;-0.20;53.40
21682;DHT22;11002;48.256;10.084;2023-04-05T01:48:12;0.10;54.60
21682;DHT22;11002;48.256;10.084;2023-04-05T01:50:40;-0.20;54.60
21682;DHT22;11002;48.256;10.084;2023-04-05T01:53:08;-0.40;53.30
21682;DHT22;11002;48.256;10.084;2023-04-05T01:55:35;-0.40;54.50
21682;DHT22;11002;48.256;10.084;2023-04-05T01:58:03;-0.50;54.60
21682;DHT22;11002;48.256;10.084;2023-04-05T02:00:31;-0.50;54.60
21682;DHT22;11002;48.256;10.084;2023-04-05T02:03:00;-0.40;54.50
21682;DHT22;11002;48.256;10.084;2023-04-05T02:05:27;-0.40;54.50
21682;DHT22;11002;48.256;10.084;2023-04-05T02:07:54;-0.50;54.00
21682;DHT22;11002;48.256;10.084;2023-04-05T02:10:22;-0.40;54.60
21682;DHT22;11002;48.256;10.084;2023-04-05T02:12:49;-0.50;54.70
21682;DHT22;11002;48.256;10.084;2023-04-05T02:15:17;-0.60;54.70
21682;DHT22;11002;48.256;10.084;2023-04-05T02:17:44;-0.50;54.80
21682;DHT22;11002;48.256;10.084;2023-04-05T02:20:13;-0.50;55.40
21682;DHT22;11002;48.256;10.084;2023-04-05T02:22:41;-0.50;55.30
21682;DHT22;11002;48.256;10.084;2023-04-05T02:25:10;-0.70;55.20
21682;DHT22;11002;48.256;10.084;2023-04-05T02:27:38;-0.70;55.70
21682;DHT22;11002;48.256;10.084;2023-04-05T02:30:06;-0.80;56.10
21682;DHT22;11002;48.256;10.084;2023-04-05T02:32:34;-0.80;56.40
21682;DHT22;11002;48.256;10.084;2023-04-05T02:35:01;-0.70;56.30
21682;DHT22;11002;48.256;10.084;2023-04-05T02:37:30;-0.80;55.70
21682;DHT22;11002;48.256;10.084;2023-04-05T02:39:57;-0.80;55.80
21682;DHT22;11002;48.256;10.084;2023-04-05T02:42:25;-0.90;56.30
21682;DHT22;11002;48.256;10.084;2023-04-05T02:44:52;-0.80;55.80
21682;DHT22;11002;48.256;10.084;2023-04-05T02:47:21;-0.90;56.50
21682;DHT22;11002;48.256;10.084;2023-04-05T02:49:56;-0.80;56.60
21682;DHT22;11002;48.256;10.084;2023-04-05T02:52:26;-0.90;57.20
21682;DHT22;11002;48.256;10.084;2023-04-05T02:54:55;-1.00;57.80
21682;DHT22;11002;48.256;10.084;2023-04-05T02:57:28;-1.00;58.40
21682;DHT22;11002;48.256;10.084;2023-04-05T03:00:18;-0.90;58.90
21682;DHT22;11002;48.256;10.084;2023-04-05T03:02:47;-1.00;58.00
21682;DHT22;11002;48.256;10.084;2023-04-05T03:05:16;-1.00;57.80
21682;DHT22;11002;48.256;10.084;2023-04-05T03:07:49;-1.00;57.00
21682;DHT22;11002;48.256;10.084;2023-04-05T03:10:22;-0.90;57.60
21682;DHT22;11002;48.256;10.084;2023-04-05T03:12:56;-1.10;57.80
21682;DHT22;11002;48.256;10.084;2023-04-05T03:15:25;-1.20;58.10
21682;DHT22;11002;48.256;10.084;2023-04-05T03:17:55;-1.30;57.50
21682;DHT22;11002;48.256;10.084;2023-04-05T03:20:23;-1.10;57.40
21682;DHT22;11002;48.256;10.084;2023-04-05T03:22:54;-1.40;57.00
21682;DHT22;11002;48.256;10.084;2023-04-05T03:25:29;-1.50;56.90
21682;DHT22;11002;48.256;10.084;2023-04-05T03:27:57;-1.70;57.20
21682;DHT22;11002;48.256;10.084;2023-04-05T03:30:29;-1.70;57.60
21682;DHT22;11002;48.256;10.084;2023-04-05T03:33:04;-1.70;57.80
21682;DHT22;11002;48.256;10.084;2023-04-05T03:35:58;-1.90;58.00
21682;DHT22;11002;48.256;10.084;2023-04-05T03:38:29;-1.80;58.50
21682;DHT22;11002;48.256;10.084;2023-04-05T03:41:18;-1.70;59.40
21682;DHT22;11002;48.256;10.084;2023-04-05T03:43:47;-1.60;59.80
21682;DHT22;11002;48.256;10.084;2023-04-05T03:46:14;-1.70;59.90
21682;DHT22;11002;48.256;10.084;2023-04-05T03:48:41;-1.60;60.60
21682;DHT22;11002;48.256;10.084;2023-04-05T03:51:09;-1.60;60.20
21682;DHT22;11002;48.256;10.084;2023-04-05T03:53:36;-1.50;59.80
21682;DHT22;11002;48.256;10.084;2023-04-05T03:56:04;-1.60;60.60
21682;DHT22;11002;48.256;10.084;2023-04-05T03:58:46;-1.80;60.30
21682;DHT22;11002;48.256;10.084;2023-04-05T04:01:15;-1.50;59.80
21682;DHT22;11002;48.256;10.084;2023-04-05T04:03:43;-1.50;60.10
21682;DHT22;11002;48.256;10.084;2023-04-05T04:06:11;-1.50;60.60
21682;DHT22;11002;48.256;10.084;2023-04-05T04:08:38;-1.60;60.10
21682;DHT22;11002;48.256;10.084;2023-04-05T04:11:06;-1.70;58.90
21682;DHT22;11002;48.256;10.084;2023-04-05T04:13:37;-1.80;60.00
21682;DHT22;11002;48.256;10.084;2023-04-05T04:16:17;-1.80;61.00
21682;DHT22;11002;48.256;10.084;2023-04-05T04:18:54;-1.70;61.50
21682;DHT22;11002;48.256;10.084;2023-04-05T04:21:45;-1.90;61.20
21682;DHT22;11002;48.256;10.084;2023-04-05T04:24:34;-1.70;61.40
21682;DHT22;11002;48.256;10.084;2023-04-05T04:27:31;-1.70;61.30
21682;DHT22;11002;48.256;10.084;2023-04-05T04:30:21;-1.70;60.80
21682;DHT22;11002;48.256;10.084;2023-04-05T04:33:10;-1.60;61.30
21682;DHT22;11002;48.256;10.084;2023-04-05T04:36:06;-1.50;60.80
21682;DHT22;11002;48.256;10.084;2023-04-05T04:38:57;-1.60;60.60
21682;DHT22;11002;48.256;10.084;2023-04-05T04:41:45;-1.50;60.50
21682;DHT22;11002;48.256;10.084;2023-04-05T04:44:36;-1.90;60.00
21682;DHT22;11002;48.256;10.084;2023-04-05T04:47:21;-1.60;60.70
21682;DHT22;11002;48.256;10.084;2023-04-05T04:50:19;-1.60;60.60
21682;DHT22;11002;48.256;10.084;2023-04-05T04:52:47;-1.50;60.80
21682;DHT22;11002;48.256;10.084;2023-04-05T04:55:14;-1.60;59.50
21682;DHT22;11002;48.256;10.084;2023-04-05T04:57:45;-1.70;58.50
21682;DHT22;11002;48.256;10.084;2023-04-05T05:00:13;-1.80;58.10
21682;DHT22;11002;48.256;10.084;2023-04-05T05:02:41;-1.80;59.40
21682;DHT22;11002;48.256;10.084;2023-04-05T05:05:12;-2.10;60.10
21682;DHT22;11002;48.256;10.084;2023-04-05T05:07:41;-2.00;60.00
21682;DHT22;11002;48.256;10.084;2023-04-05T05:10:10;-1.90;59.40
21682;DHT22;11002;48.256;10.084;2023-04-05T05:12:38;-2.10;60.30
21682;DHT22;11002;48.256;10.084;2023-04-05T05:15:06;-2.00;60.70
21682;DHT22;11002;48.256;10.084;2023-04-05T05:17:34;-1.90;62.00
21682;DHT22;11002;48.256;10.084;2023-04-05T05:20:03;-2.00;61.50
21682;DHT22;11002;48.256;10.084;2023-04-05T05:22:36;-2.00;59.80
21682;DHT22;11002;48.256;10.084;2023-04-05T05:25:06;-1.70;61.50
21682;DHT22;11002;48.256;10.084;2023-04-05T05:27:34;-1.00;60.40
21682;DHT22;11002;48.256;10.084;2023-04-05T05:30:03;-0.50;57.50
21682;DHT22;11002;48.256;10.084;2023-04-05T05:32:30;0.10;54.20
21682;DHT22;11002;48.256;10.084;2023-04-05T05:34:58;0.60;52.30
21682;DHT22;11002;48.256;10.084;2023-04-05T05:37:29;1.40;50.50
21682;DHT22;11002;48.256;10.084;2023-04-05T05:39:57;2.10;46.40
21682;DHT22;11002;48.256;10.084;2023-04-05T05:42:27;2.50;44.60
21682;DHT22;11002;48.256;10.084;2023-04-05T05:44:56;2.70;43.40
21682;DHT22;11002;48.256;10.084;2023-04-05T05:47:23;3.40;41.60
21682;DHT22;11002;48.256;10.084;2023-04-05T05:49:51;3.90;40.50
21682;DHT22;11002;48.256;10.084;2023-04-05T05:52:18;4.50;37.80
21682;DHT22;11002;48.256;10.084;2023-04-05T05:54:46;5.00;36.40
21682;DHT22;11002;48.256;10.084;2023-04-05T05:57:13;5.40;35.70
21682;DHT22;11002;48.256;10.084;2023-04-05T05:59:42;5.70;33.90
21682;DHT22;11002;48.256;10.084;2023-04-05T06:02:09;5.90;31.50
21682;DHT22;11002;48.256;10.084;2023-04-05T06:04:37;6.00;30.80
21682;DHT22;11002;48.256;10.084;2023-04-05T06:07:04;5.80;30.60
21682;DHT22;11002;48.256;10.084;2023-04-05T06:09:31;5.80;30.50
21682;DHT22;11002;48.256;10.084;2023-04-05T06:12:00;5.70;30.50
21682;DHT22;11002;48.256;10.084;2023-04-05T06:14:27;5.40;30.60
21682;DHT22;11002;48.256;10.084;2023-04-05T06:16:57;5.20;32.70
21682;DHT22;11002;48.256;10.084;2023-04-05T06:19:24;5.20;31.70
21682;DHT22;11002;48.256;10.084;2023-04-05T06:21:52;5.30;32.00
21682;DHT22;11002;48.256;10.084;2023-04-05T06:24:19;5.60;32.30
21682;DHT22;11002;48.256;10.084;2023-04-05T06:26:48;5.40;30.20
21682;DHT22;11002;48.256;10.084;2023-04-05T06:29:15;5.50;30.30
21682;DHT22;11002;48.256;10.084;2023-04-05T06:31:43;5.30;31.00
21682;DHT22;11002;48.256;10.084;2023-04-05T06:34:14;5.40;31.00
21682;DHT22;11002;48.256;10.084;2023-04-05T06:36:41;6.20;30.90
21682;DHT22;11002;48.256;10.084;2023-04-05T06:39:09;6.90;29.50
21682;DHT22;11002;48.256;10.084;2023-04-05T06:41:36;7.30;26.30
21682;DHT22;11002;48.256;10.084;2023-04-05T06:44:03;7.10;27.10
21682;DHT22;11002;48.256;10.084;2023-04-05T06:46:31;7.30;26.30
21682;DHT22;11002;48.256;10.084;2023-04-05T06:48:58;7.50;26.50
21682;DHT22;11002;48.256;10.084;2023-04-05T06:51:27;8.20;26.90
21682;DHT22;11002;48.256;10.084;2023-04-05T06:53:54;8.30;25.10
21682;DHT22;11002;48.256;10.084;2023-04-05T06:56:25;7.90;24.70
21682;DHT22;11002;48.256;10.084;2023-04-05T06:58:52;7.40;24.60
21682;DHT22;11002;48.256;10.084;2023-04-05T07:01:20;7.10;26.20
21682;DHT22;11002;48.256;10.084;2023-04-05T07:03:49;6.70;26.00
21682;DHT22;11002;48.256;10.084;2023-04-05T07:06:17;6.80;26.00
21682;DHT22;11002;48.256;10.084;2023-04-05T07:08:45;6.00;25.50
21682;DHT22;11002;48.256;10.084;2023-04-05T07:11:13;5.70;28.10
21682;DHT22;11002;48.256;10.084;2023-04-05T07:13:40;5.30;27.40
21682;DHT22;11002;48.256;10.084;2023-04-05T07:16:08;4.90;28.40
21682;DHT22;11002;48.256;10.084;2023-04-05T07:18:35;5.10;30.00
21682;DHT22;11002;48.256;10.084;2023-04-05T07:21:02;5.10;27.20
21682;DHT22;11002;48.256;10.084;2023-04-05T07:23:30;5.00;28.70
21682;DHT22;11002;48.256;10.084;2023-04-05T07:26:00;4.90;28.90
21682;DHT22;11002;48.256;10.084;2023-04-05T07:28:30;5.00;30.00
21682;DHT22;11002;48.256;10.084;2023-04-05T07:31:00;5.20;29.50
21682;DHT22;11002;48.256;10.084;2023-04-05T07:33:28;5.40;30.20
21682;DHT22;11002;48.256;10.084;2023-04-05T07:35:55;5.50;28.30
21682;DHT22;11002;48.256;10.084;2023-04-05T07:38:23;5.40;27.60
21682;DHT22;11002;48.256;10.084;2023-04-05T07:40:51;5.40;29.40
21682;DHT22;11002;48.256;10.084;2023-04-05T07:43:20;5.70;29.70
21682;DHT22;11002;48.256;10.084;2023-04-05T07:45:47;5.80;26.80
21682;DHT22;11002;48.256;10.084;2023-04-05T07:48:14;5.80;26.60
21682;DHT22;11002;48.256;10.084;2023-04-05T07:50:42;6.00;28.40
21682;DHT22;11002;48.256;10.084;2023-04-05T07:53:12;6.00;25.50
21682;DHT22;11002;48.256;10.084;2023-04-05T07:55:40;5.90;26.70
21682;DHT22;11002;48.256;10.084;2023-04-05T07:58:07;6.10;29.00
21682;DHT22;11002;48.256;10.084;2023-04-05T08:00:37;6.40;27.20
21682;DHT22;11002;48.256;10.084;2023-04-05T08:03:05;6.60;25.90
21682;DHT22;11002;48.256;10.084;2023-04-05T08:05:32;6.80;26.80
21682;DHT22;11002;48.256;10.084;2023-04-05T08:08:00;6.80;25.70
21682;DHT22;11002;48.256;10.084;2023-04-05T08:10:27;6.70;26.00
21682;DHT22;11002;48.256;10.084;2023-04-05T08:12:55;6.90;26.10
21682;DHT22;11002;48.256;10.084;2023-04-05T08:15:22;7.20;26.30
21682;DHT22;11002;48.256;10.084;2023-04-05T08:17:51;7.50;26.40
21682;DHT22;11002;48.256;10.084;2023-04-05T08:20:18;7.80;24.40
21682;DHT22;11002;48.256;10.084;2023-04-05T08:22:45;7.60;25.30
21682;DHT22;11002;48.256;10.084;2023-04-05T08:25:13;7.80;23.40
21682;DHT22;11002;48.256;10.084;2023-04-05T08:27:40;7.10;23.50
21682;DHT22;11002;48.256;10.084;2023-04-05T08:30:09;7.00;23.20
21682;DHT22;11002;48.256;10.084;2023-04-05T08:32:36;7.10;23.70
21682;DHT22;11002;48.256;10.084;2023-04-05T08:35:05;7.20;23.40
21682;DHT22;11002;48.256;10.084;2023-04-05T08:37:33;7.70;26.60
21682;DHT22;11002;48.256;10.084;2023-04-05T08:40:00;7.90;22.40
21682;DHT22;11002;48.256;10.084;2023-04-05T08:42:33;8.20;22.20
21682;DHT22;11002;48.256;10.084;2023-04-05T08:45:02;8.20;22.90
21682;DHT22;11002;48.256;10.084;2023-04-05T08:47:30;8.40;21.80
21682;DHT22;11002;48.256;10.084;2023-04-05T08:50:00;8.70;19.10
21682;DHT22;11002;48.256;10.084;2023-04-05T08:52:29;8.70;20.40
21682;DHT22;11002;48.256;10.084;2023-04-05T08:54:57;8.90;20.70
21682;DHT22;11002;48.256;10.084;2023-04-05T08:57:28;9.20;19.70
21682;DHT22;11002;48.256;10.084;2023-04-05T08:59:58;9.60;17.20
21682;DHT22;11002;48.256;10.084;2023-04-05T09:02:28;9.90;17.40
21682;DHT22;11002;48.256;10.084;2023-04-05T09:04:55;10.40;17.00
21682;DHT22;11002;48.256;10.084;2023-04-05T09:07:24;10.20;15.10
21682;DHT22;11002;48.256;10.084;2023-04-05T09:09:54;10.10;14.90
21682;DHT22;11002;48.256;10.084;2023-04-05T09:12:24;10.10;13.50
21682;DHT22;11002;48.256;10.084;2023-04-05T09:14:53;10.30;14.00
21682;DHT22;11002;48.256;10.084;2023-04-05T09:17:21;11.20;12.10
21682;DHT22;11002;48.256;10.084;2023-04-05T09:19:49;11.80;10.60
21682;DHT22;11002;48.256;10.084;2023-04-05T09:22:16;12.00;11.40
21682;DHT22;11002;48.256;10.084;2023-04-05T09:24:45;11.40;11.50
21682;DHT22;11002;48.256;10.084;2023-04-05T09:27:18;11.50;12.20
21682;DHT22;11002;48.256;10.084;2023-04-05T09:30:20;12.30;9.40
21682;DHT22;11002;48.256;10.084;2023-04-05T09:32:50;12.60;8.30
21682;DHT22;11002;48.256;10.084;2023-04-05T09:35:18;12.40;7.30
21682;DHT22;11002;48.256;10.084;2023-04-05T09:37:51;12.00;9.00
21682;DHT22;11002;48.256;10.084;2023-04-05T09:40:20;11.40;9.20
21682;DHT22;11002;48.256;10.084;2023-04-05T09:42:49;11.60;10.10
21682;DHT22;11002;48.256;10.084;2023-04-05T09:45:19;12.60;9.50
21682;DHT22;11002;48.256;10.084;2023-04-05T09:47:55;12.50;7.70
21682;DHT22;11002;48.256;10.084;2023-04-05T09:50:25;13.10;11.20
21682;DHT22;11002;48.256;10.084;2023-04-05T09:53:05;13.80;8.20
21682;DHT22;11002;48.256;10.084;2023-04-05T09:55:33;13.50;8.00
21682;DHT22;11002;48.256;10.084;2023-04-05T09:58:02;14.30;8.60
21682;DHT22;11002;48.256;10.084;2023-04-05T10:00:30;14.50;7.20
21682;DHT22;11002;48.256;10.084;2023-04-05T10:02:58;15.00;7.70
21682;DHT22;11002;48.256;10.084;2023-04-05T10:05:27;15.60;7.30
21682;DHT22;11002;48.256;10.084;2023-04-05T10:07:55;15.60;9.40
21682;DHT22;11002;48.256;10.084;2023-04-05T10:10:22;16.00;7.80
21682;DHT22;11002;48.256;10.084;2023-04-05T10:12:50;16.30;8.30
21682;DHT22;11002;48.256;10.084;2023-04-05T10:15:22;17.00;8.30
21682;DHT22;11002;48.256;10.084;2023-04-05T10:17:58;16.90;3.40
21682;DHT22;11002;48.256;10.084;2023-04-05T10:20:30;15.50;4.60
21682;DHT22;11002;48.256;10.084;2023-04-05T10:23:05;15.30;5.50
21682;DHT22;11002;48.256;10.084;2023-04-05T10:25:46;14.70;5.60
21682;DHT22;11002;48.256;10.084;2023-04-05T10:28:22;13.60;6.10
21682;DHT22;11002;48.256;10.084;2023-04-05T10:30:58;13.70;6.30
21682;DHT22;11002;48.256;10.084;2023-04-05T10:33:30;14.20;5.90
21682;DHT22;11002;48.256;10.084;2023-04-05T10:36:16;14.00;5.90
21682;DHT22;11002;48.256;10.084;2023-04-05T10:38:54;13.70;5.30
21682;DHT22;11002;48.256;10.084;2023-04-05T10:41:26;13.20;4.90
21682;DHT22;11002;48.256;10.084;2023-04-05T10:43:56;12.00;7.00
21682;DHT22;11002;48.256;10.084;2023-04-05T10:46:25;11.40;8.60
21682;DHT22;11002;48.256;10.084;2023-04-05T10:48:58;11.60;10.10
21682;DHT22;11002;48.256;10.084;2023-04-05T10:51:29;12.20;8.90
21682;DHT22;11002;48.256;10.084;2023-04-05T10:53:57;12.60;7.50
21682;DHT22;11002;48.256;10.084;2023-04-05T10:56:26;12.70;7.50
21682;DHT22;11002;48.256;10.084;2023-04-05T10:58:55;14.30;9.50
21682;DHT22;11002;48.256;10.084;2023-04-05T11:01:22;15.60;6.00
21682;DHT22;11002;48.256;10.084;2023-04-05T11:03:52;16.00;3.20
21682;DHT22;11002;48.256;10.084;2023-04-05T11:06:22;15.60;4.10
21682;DHT22;11002;48.256;10.084;2023-04-05T11:08:53;14.70;6.00
21682;DHT22;11002;48.256;10.084;2023-04-05T11:11:22;13.60;8.10
21682;DHT22;11002;48.256;10.084;2023-04-05T11:13:51;13.40;8.00
21682;DHT22;11002;48.256;10.084;2023-04-05T11:16:19;13.00;7.30
21682;DHT22;11002;48.256;10.084;2023-04-05T11:18:48;13.10;7.80
21682;DHT22;11002;48.256;10.084;2023-04-05T11:21:24;13.60;5.70
21682;DHT22;11002;48.256;10.084;2023-04-05T11:24:03;14.20;6.80
21682;DHT22;11002;48.256;10.084;2023-04-05T11:26:33;14.70;5.70
21682;DHT22;11002;48.256;10.084;2023-04-05T11:29:05;14.80;5.40
21682;DHT22;11002;48.256;10.084;2023-04-05T11:31:33;14.90;6.40
21682;DHT22;11002;48.256;10.084;2023-04-05T11:34:03;16.20;5.60
21682;DHT22;11002;48.256;10.084;2023-04-05T11:36:38;17.20;6.00
21682;DHT22;11002;48.256;10.084;2023-04-05T11:39:25;17.90;2.90
21682;DHT22;11002;48.256;10.084;2023-04-05T11:42:00;17.40;6.60
21682;DHT22;11002;48.256;10.084;2023-04-05T11:44:29;18.00;3.60
21682;DHT22;11002;48.256;10.084;2023-04-05T11:47:07;17.80;2.10
21682;DHT22;11002;48.256;10.084;2023-04-05T11:49:36;18.20;2.30
21682;DHT22;11002;48.256;10.084;2023-04-05T11:52:13;18.30;5.50
21682;DHT22;11002;48.256;10.084;2023-04-05T11:54:42;18.20;2.60
21682;DHT22;11002;48.256;10.084;2023-04-05T11:57:17;17.90;1.70
21682;DHT22;11002;48.256;10.084;2023-04-05T11:59:44;16.30;3.20
21682;DHT22;11002;48.256;10.084;2023-04-05T12:02:12;15.70;3.80
21682;DHT22;11002;48.256;10.084;2023-04-05T12:04:39;15.30;4.50
21682;DHT22;11002;48.256;10.084;2023-04-05T12:07:12;15.40;3.30
21682;DHT22;11002;48.256;10.084;2023-04-05T12:10:00;15.00;5.30
21682;DHT22;11002;48.256;10.084;2023-04-05T12:12:31;16.00;5.90
21682;DHT22;11002;48.256;10.084;2023-04-05T12:14:59;16.10;5.20
21682;DHT22;11002;48.256;10.084;2023-04-05T12:17:46;18.00;1.80
21682;DHT22;11002;48.256;10.084;2023-04-05T12:20:16;18.60;2.40
21682;DHT22;11002;48.256;10.084;2023-04-05T12:22:47;18.50;1.10
21682;DHT22;11002;48.256;10.084;2023-04-05T12:25:16;18.20;2.70
21682;DHT22;11002;48.256;10.084;2023-04-05T12:27:44;17.40;1.30
21682;DHT22;11002;48.256;10.084;2023-04-05T12:30:13;16.10;3.00
21682;DHT22;11002;48.256;10.084;2023-04-05T12:32:43;14.80;4.80
21682;DHT22;11002;48.256;10.084;2023-04-05T12:35:12;14.20;4.80
21682;DHT22;11002;48.256;10.084;2023-04-05T12:37:39;14.50;5.90
21682;DHT22;11002;48.256;10.084;2023-04-05T12:40:09;14.30;5.60
21682;DHT22;11002;48.256;10.084;2023-04-05T12:42:44;13.60;8.10
21682;DHT22;11002;48.256;10.084;2023-04-05T12:45:12;13.30;7.00
21682;DHT22;11002;48.256;10.084;2023-04-05T12:47:54;13.40;6.60
21682;DHT22;11002;48.256;10.084;2023-04-05T12:50:25;13.40;6.80
21682;DHT22;11002;48.256;10.084;2023-04-05T12:52:55;13.30;6.40
21682;DHT22;11002;48.256;10.084;2023-04-05T12:55:26;12.90;7.60
21682;DHT22;11002;48.256;10.084;2023-04-05T12:57:55;12.90;7.70
21682;DHT22;11002;48.256;10.084;2023-04-05T13:00:25;13.00;10.50
21682;DHT22;11002;48.256;10.084;2023-04-05T13:02:53;13.50;5.90
21682;DHT22;11002;48.256;10.084;2023-04-05T13:05:22;13.20;7.80
21682;DHT22;11002;48.256;10.084;2023-04-05T13:07:50;13.00;7.70
21682;DHT22;11002;48.256;10.084;2023-04-05T13:10:18;12.60;6.40
21682;DHT22;11002;48.256;10.084;2023-04-05T13:12:47;12.40;9.90
21682;DHT22;11002;48.256;10.084;2023-04-05T13:15:15;13.10;7.80
21682;DHT22;11002;48.256;10.084;2023-04-05T13:17:44;13.30;7.90
21682;DHT22;11002;48.256;10.084;2023-04-05T13:20:15;13.10;7.80
21682;DHT22;11002;48.256;10.084;2023-04-05T13:22:43;13.90;8.30
21682;DHT22;11002;48.256;10.084;2023-04-05T13:25:10;14.40;7.50
21682;DHT22;11002;48.256;10.084;2023-04-05T13:27:37;14.10;5.30
21682;DHT22;11002;48.256;10.084;2023-04-05T13:30:07;13.20;6.10
21682;DHT22;11002;48.256;10.084;2023-04-05T13:32:35;13.10;7.30
21682;DHT22;11002;48.256;10.084;2023-04-05T13:35:02;12.80;9.20
21682;DHT22;11002;48.256;10.084;2023-04-05T13:37:30;12.70;7.50
21682;DHT22;11002;48.256;10.084;2023-04-05T13:39:58;12.80;8.70
21682;DHT22;11002;48.256;10.084;2023-04-05T13:42:25;13.10;9.90
21682;DHT22;11002;48.256;10.084;2023-04-05T13:44:52;13.60;9.40
21682;DHT22;11002;48.256;10.084;2023-04-05T13:47:21;14.20;8.50
21682;DHT22;11002;48.256;10.084;2023-04-05T13:49:48;14.30;8.60
21682;DHT22;11002;48.256;10.084;2023-04-05T13:52:16;13.90;6.50
21682;DHT22;11002;48.256;10.084;2023-04-05T13:54:44;13.10;8.80
21682;DHT22;11002;48.256;10.084;2023-04-05T13:57:11;12.70;7.50
21682;DHT22;11002;48.256;10.084;2023-04-05T13:59:39;12.70;7.50
21682;DHT22;11002;48.256;10.084;2023-04-05T14:02:06;12.00;7.40
21682;DHT22;11002;48.256;10.084;2023-04-05T14:04:35;11.30;9.10
21682;DHT22;11002;48.256;10.084;2023-04-05T14:07:03;10.80;10.90
21682;DHT22;11002;48.256;10.084;2023-04-05T14:09:31;10.40;10.40
21682;DHT22;11002;48.256;10.084;2023-04-05T14:12:02;10.40;11.20
21682;DHT22;11002;48.256;10.084;2023-04-05T14:14:30;10.40;10.00
21682;DHT22;11002;48.256;10.084;2023-04-05T14:16:57;10.30;10.20
21682;DHT22;11002;48.256;10.084;2023-04-05T14:19:25;10.00;11.30
21682;DHT22;11002;48.256;10.084;2023-04-05T14:21:53;9.60;11.80
21682;DHT22;11002;48.256;10.084;2023-04-05T14:24:21;9.60;12.10
21682;DHT22;11002;48.256;10.084;2023-04-05T14:26:50;9.80;15.10
21682;DHT22;11002;48.256;10.084;2023-04-05T14:29:17;10.10;12.40
21682;DHT22;11002;48.256;10.084;2023-04-05T14:31:45;10.30;10.40
21682;DHT22;11002;48.256;10.084;2023-04-05T14:34:13;10.20;11.40
21682;DHT22;11002;48.256;10.084;2023-04-05T14:36:40;10.40;13.20
21682;DHT22;11002;48.256;10.084;2023-04-05T14:39:09;10.30;13.20
21682;DHT22;11002;48.256;10.084;2023-04-05T14:41:37;10.30;12.60
21682;DHT22;11002;48.256;10.084;2023-04-05T14:44:05;10.40;13.10
21682;DHT22;11002;48.256;10.084;2023-04-05T14:46:32;10.50;11.60
21682;DHT22;11002;48.256;10.084;2023-04-05T14:49:00;10.50;10.70
21682;DHT22;11002;48.256;10.084;2023-04-05T14:51:27;10.30;11.50
21682;DHT22;11002;48.256;10.084;2023-04-05T14:53:55;10.60;12.00
21682;DHT22;11002;48.256;10.084;2023-04-05T14:56:24;10.40;11.60
21682;DHT22;11002;48.256;10.084;2023-04-05T14:58:51;10.50;12.50
21682;DHT22;11002;48.256;10.084;2023-04-05T15:01:19;10.40;11.90
21682;DHT22;11002;48.256;10.084;2023-04-05T15:03:47;10.50;13.90
21682;DHT22;11002;48.256;10.084;2023-04-05T15:06:15;10.40;13.70
21682;DHT22;11002;48.256;10.084;2023-04-05T15:08:43;10.50;14.80
21682;DHT22;11002;48.256;10.084;2023-04-05T15:11:10;10.60;14.70
21682;DHT22;11002;48.256;10.084;2023-04-05T15:13:39;10.90;13.30
21682;DHT22;11002;48.256;10.084;2023-04-05T15:16:07;10.30;11.80
21682;DHT22;11002;48.256;10.084;2023-04-05T15:18:35;10.10;13.60
21682;DHT22;11002;48.256;10.084;2023-04-05T15:21:03;9.60;13.90
21682;DHT22;11002;48.256;10.084;2023-04-05T15:23:32;9.40;14.00
21682;DHT22;11002;48.256;10.084;2023-04-05T15:26:00;9.20;14.00
21682;DHT22;11002;48.256;10.084;2023-04-05T15:28:27;9.30;15.30
21682;DHT22;11002;48.256;10.084;2023-04-05T15:30:56;9.20;14.30
21682;DHT22;11002;48.256;10.084;2023-04-05T15:33:24;9.20;14.20
21682;DHT22;11002;48.256;10.084;2023-04-05T15:35:51;9.40;17.10
21682;DHT22;11002;48.256;10.084;2023-04-05T15:38:19;9.30;15.70
21682;DHT22;11002;48.256;10.084;2023-04-05T15:40:46;9.40;17.10
21682;DHT22;11002;48.256;10.084;2023-04-05T15:43:17;9.80;17.30
21682;DHT22;11002;48.256;10.084;2023-04-05T15:45:45;9.60;17.20